Time;durP1;ratioP1;P1;durP2;ratioP2;P2;SDS_P1;SDS_P2;PMS_P1;PMS_P2;Temp;Humidity;BMP_temperature;BMP_pressure;BME280_temperature;BME280_humidity;BME280_pressure;Samples;Min_cycle;Max_cycle;Signal;HPM_P1;HPM_P2
2022/06/01 00:01:47;;;;;;;;;;;;;;;13.34;69.08;99876.97;6220153;23;20002;-76
2022/06/01 00:04:13;;;;;;;;;;;;;;;13.34;68.87;99873.44;6246998;22;19920;-76
2022/06/01 00:06:39;;;;;;;;;;;;;;;13.32;69.03;99878.94;6195216;23;20054;-75
2022/06/01 00:09:04;;;;;;;;;;;;;;;13.38;68.86;99879.41;6220187;23;20336;-77
2022/06/01 00:11:31;;;;;;;;;;;;;;;13.40;68.70;99883.66;6245537;23;20357;-76
2022/06/01 00:13:56;;;;;;;;;;;;;;;13.41;68.63;99884.53;6220165;23;19919;-75
2022/06/01 00:16:23;;;;;;;;;;;;;;;13.40;68.30;99888.19;6245913;23;20443;-76
2022/06/01 00:18:48;;;;;;;;;;;;;;;13.45;68.52;99892.19;6246701;22;19923;-76
2022/06/01 00:21:14;;;;;;;;;;;;;;;13.36;68.95;99891.13;6245447;23;19974;-76
2022/06/01 00:23:40;;;;;;;;;;;;;;;13.32;68.82;99896.88;6194832;23;20290;-76
2022/06/01 00:26:05;;;;;;;;;;;;;;;13.29;69.21;99892.59;6245444;23;19923;-77
2022/06/01 00:28:32;;;;;;;;;;;;;;;13.20;69.08;99904.09;6220674;23;19930;-77
2022/06/01 00:30:57;;;;;;;;;;;;;;;13.18;69.71;99906.03;6220634;23;19923;-76
2022/06/01 00:33:23;;;;;;;;;;;;;;;13.24;69.19;99894.84;6194880;23;19966;-77
2022/06/01 00:35:49;;;;;;;;;;;;;;;13.28;69.11;99901.66;6245292;23;19926;-76
2022/06/01 00:38:16;;;;;;;;;;;;;;;13.27;69.08;99899.94;6219884;23;19923;-76
2022/06/01 00:40:42;;;;;;;;;;;;;;;13.23;69.23;99903.84;6245236;23;19969;-76
2022/06/01 00:43:17;;;;;;;;;;;;;;;13.25;69.00;99907.28;6194726;23;19967;-76
2022/06/01 00:45:43;;;;;;;;;;;;;;;13.19;69.54;99902.34;6195237;23;20298;-76
2022/06/01 00:48:09;;;;;;;;;;;;;;;13.26;68.97;99903.59;6219636;23;19919;-76
2022/06/01 00:50:36;;;;;;;;;;;;;;;13.34;68.81;99908.34;6194783;23;19920;-76
2022/06/01 00:53:05;;;;;;;;;;;;;;;13.34;68.99;99911.03;6246527;23;19934;-76
2022/06/01 00:55:33;;;;;;;;;;;;;;;13.41;68.62;99906.00;6195039;23;19926;-76
2022/06/01 00:58:08;;;;;;;;;;;;;;;13.42;68.81;99910.38;6219861;23;19926;-76
2022/06/01 01:00:35;;;;;;;;;;;;;;;13.48;68.36;99912.56;6220229;23;19927;-76
2022/06/01 01:03:02;;;;;;;;;;;;;;;13.56;68.29;99918.16;6194607;23;19926;-76
2022/06/01 01:05:29;;;;;;;;;;;;;;;13.52;68.23;99919.38;6219891;23;19920;-77
2022/06/01 01:07:55;;;;;;;;;;;;;;;13.47;68.38;99916.25;6246781;22;19919;-76
2022/06/01 01:10:21;;;;;;;;;;;;;;;13.49;68.22;99919.63;6219911;23;20255;-77
2022/06/01 01:12:56;;;;;;;;;;;;;;;13.53;68.08;99923.78;6244901;23;19920;-77
2022/06/01 01:15:23;;;;;;;;;;;;;;;13.49;68.26;99912.44;6195129;23;19919;-76
2022/06/01 01:17:50;;;;;;;;;;;;;;;13.52;68.16;99916.72;6220505;23;19923;-77
2022/06/01 01:20:16;;;;;;;;;;;;;;;13.48;68.54;99921.47;6219746;23;19923;-77
2022/06/01 01:23:01;;;;;;;;;;;;;;;13.44;68.42;99928.09;6221333;23;20251;-77
2022/06/01 01:25:28;;;;;;;;;;;;;;;13.50;68.26;99922.22;6248742;22;19927;-77
2022/06/01 01:27:57;;;;;;;;;;;;;;;13.52;68.23;99930.13;6248853;22;19950;-76
2022/06/01 01:30:43;;;;;;;;;;;;;;;13.44;68.43;99924.56;6221305;23;19927;-76
2022/06/01 01:33:08;;;;;;;;;;;;;;;13.47;68.41;99929.69;6236424;23;19924;-77
2022/06/01 01:35:35;;;;;;;;;;;;;;;13.56;68.30;99923.53;6219564;23;19926;-76
2022/06/01 01:38:03;;;;;;;;;;;;;;;13.57;68.18;99934.13;6219381;23;20249;-77
2022/06/01 01:40:28;;;;;;;;;;;;;;;13.65;68.01;99930.81;6244849;23;19983;-75
2022/06/01 01:42:55;;;;;;;;;;;;;;;13.59;68.04;99928.66;6219157;23;20011;-77
2022/06/01 01:45:27;;;;;;;;;;;;;;;13.61;67.82;99937.41;6220411;23;20304;-78
2022/06/01 01:47:54;;;;;;;;;;;;;;;13.69;67.83;99942.16;6223025;23;19919;-77
2022/06/01 01:50:20;;;;;;;;;;;;;;;13.72;68.00;99942.75;6228033;23;19981;-89
2022/06/01 01:52:47;;;;;;;;;;;;;;;13.85;68.26;99938.06;6199917;23;19923;-89
2022/06/01 01:55:16;;;;;;;;;;;;;;;14.02;67.75;99949.22;6197306;23;20336;-80
2022/06/01 01:57:56;;;;;;;;;;;;;;;14.16;67.21;99951.59;6245381;23;20333;-81
2022/06/01 02:00:24;;;;;;;;;;;;;;;14.37;67.27;99948.03;6220417;23;20252;-84
2022/06/01 02:02:50;;;;;;;;;;;;;;;14.46;65.85;99952.63;6222910;23;19978;-80
2022/06/01 02:08:25;;;;;;;;;;;;;;;14.36;65.97;99952.56;6220567;23;19951;-78
2022/06/01 02:13:37;;;;;;;;;;;;;;;14.49;65.77;99952.38;6219443;23;19926;-78
2022/06/01 02:16:03;;;;;;;;;;;;;;;14.52;65.65;99957.53;6195929;23;19955;-77
2022/06/01 02:18:32;;;;;;;;;;;;;;;14.57;65.60;99960.66;6221022;23;19919;-79
2022/06/01 02:21:01;;;;;;;;;;;;;;;14.61;65.64;99956.72;6195219;23;19919;-79
2022/06/01 02:23:31;;;;;;;;;;;;;;;14.52;65.82;99960.22;6220660;23;19919;-79
2022/06/01 02:25:58;;;;;;;;;;;;;;;14.50;66.50;99964.88;6195109;23;20331;-76
2022/06/01 02:28:25;;;;;;;;;;;;;;;14.52;66.25;99974.50;6244989;23;19974;-78
2022/06/01 02:30:52;;;;;;;;;;;;;;;14.53;66.33;99976.22;6219903;23;20332;-80
2022/06/01 02:33:25;;;;;;;;;;;;;;;14.28;67.38;99980.13;6245215;23;19930;-78
2022/06/01 02:35:53;;;;;;;;;;;;;;;14.42;66.80;99983.47;6246549;23;19920;-78
2022/06/01 02:38:39;;;;;;;;;;;;;;;14.40;66.96;99985.44;6199121;23;19923;-81
2022/06/01 02:41:05;;;;;;;;;;;;;;;14.45;67.27;99988.59;6224221;23;19958;-78
2022/06/01 02:43:47;;;;;;;;;;;;;;;14.56;66.87;99988.56;6227067;23;19920;-84
2022/06/01 02:46:15;;;;;;;;;;;;;;;14.69;67.47;99994.56;6199057;23;19966;-79
2022/06/01 02:48:43;;;;;;;;;;;;;;;14.78;67.56;99991.09;6251089;22;20022;-76
2022/06/01 02:51:09;;;;;;;;;;;;;;;14.96;66.54;99993.13;6247664;23;19919;-81
2022/06/01 02:53:37;;;;;;;;;;;;;;;14.89;66.32;100000.88;6195899;23;19931;-79
2022/06/01 02:56:03;;;;;;;;;;;;;;;15.01;66.16;100002.53;6221163;23;19943;-80
2022/06/01 02:58:29;;;;;;;;;;;;;;;14.98;65.99;100001.94;6195650;23;19920;-80
2022/06/01 03:00:58;;;;;;;;;;;;;;;14.91;65.81;99996.25;6246714;23;20350;-77
2022/06/01 03:03:24;;;;;;;;;;;;;;;14.94;66.24;99995.13;6220777;23;19927;-79
2022/06/01 03:05:49;;;;;;;;;;;;;;;14.95;65.79;100002.22;6220914;23;19923;-78
2022/06/01 03:08:15;;;;;;;;;;;;;;;14.90;66.15;100007.16;6246753;23;20002;-84
2022/06/01 03:10:41;;;;;;;;;;;;;;;14.81;66.60;99998.88;6196488;23;20362;-83
2022/06/01 03:13:07;;;;;;;;;;;;;;;14.85;66.64;100006.69;6221419;23;19973;-80
2022/06/01 03:15:32;;;;;;;;;;;;;;;14.93;66.56;100007.75;6249646;22;19926;-84
2022/06/01 03:17:58;;;;;;;;;;;;;;;14.89;66.82;100008.13;6247165;23;19923;-82
2022/06/01 03:20:27;;;;;;;;;;;;;;;15.00;66.71;100005.34;6246820;23;20010;-79
2022/06/01 03:22:53;;;;;;;;;;;;;;;15.12;66.42;100015.06;6196255;23;19919;-81
2022/06/01 03:25:22;;;;;;;;;;;;;;;15.24;66.16;100007.72;6221444;23;19998;-82
2022/06/01 03:27:49;;;;;;;;;;;;;;;15.32;66.46;100009.72;6221739;23;19986;-80
2022/06/01 03:30:16;;;;;;;;;;;;;;;15.37;65.80;100007.47;6245344;23;19925;-80
2022/06/01 03:32:43;;;;;;;;;;;;;;;15.40;66.04;100013.44;6195387;23;20302;-77
2022/06/01 03:35:09;;;;;;;;;;;;;;;15.57;65.91;100011.06;6247497;22;19919;-80
2022/06/01 03:37:36;;;;;;;;;;;;;;;15.67;65.80;100010.13;6195726;23;20001;-79
2022/06/01 03:40:02;;;;;;;;;;;;;;;15.78;65.57;100011.84;6221511;23;19926;-79
2022/06/01 03:42:30;;;;;;;;;;;;;;;15.85;65.19;100014.84;6245622;23;19978;-82
2022/06/01 03:47:41;;;;;;;;;;;;;;;15.99;64.76;100025.22;6220075;23;20260;-81
2022/06/01 03:50:08;;;;;;;;;;;;;;;16.13;65.26;100021.22;6247097;22;19926;-86
2022/06/01 03:52:34;;;;;;;;;;;;;;;16.34;65.07;100018.41;6221225;23;19926;-81
2022/06/01 03:55:00;;;;;;;;;;;;;;;16.54;64.25;100022.75;6220724;23;19919;-83
2022/06/01 03:57:28;;;;;;;;;;;;;;;16.64;63.91;100026.31;6221456;23;20004;-80
2022/06/01 03:59:54;;;;;;;;;;;;;;;16.68;63.13;100032.28;6245342;23;20001;-80
2022/06/01 04:02:20;;;;;;;;;;;;;;;16.74;62.86;100035.28;6220617;23;20264;-89
2022/06/01 04:04:45;;;;;;;;;;;;;;;16.81;62.97;100029.28;6195446;23;19930;-84
2022/06/01 04:07:11;;;;;;;;;;;;;;;16.93;62.58;100030.84;6251697;22;20265;-86
2022/06/01 04:09:37;;;;;;;;;;;;;;;16.97;60.69;100032.25;6231966;23;19920;-85
2022/06/01 04:12:02;;;;;;;;;;;;;;;16.93;61.76;100036.22;6228181;23;19992;-89
2022/06/01 04:14:28;;;;;;;;;;;;;;;17.06;62.48;100035.91;6232754;23;19970;-86
2022/06/01 04:16:54;;;;;;;;;;;;;;;17.20;62.29;100038.13;6204276;23;19919;-80
2022/06/01 04:19:19;;;;;;;;;;;;;;;17.38;61.32;100036.34;6247111;22;19923;-82
2022/06/01 04:21:47;;;;;;;;;;;;;;;17.42;60.63;100035.03;6221127;23;19924;-87
2022/06/01 04:24:14;;;;;;;;;;;;;;;17.55;60.57;100048.19;6221523;23;20225;-87
2022/06/01 04:26:40;;;;;;;;;;;;;;;17.61;60.33;100039.50;6221349;23;19919;-90
2022/06/01 04:29:06;;;;;;;;;;;;;;;17.77;59.29;100040.72;6245929;23;20006;-85
2022/06/01 04:31:32;;;;;;;;;;;;;;;17.95;58.18;100028.06;6246536;22;20402;-83
2022/06/01 04:33:57;;;;;;;;;;;;;;;18.02;56.67;100037.28;6219803;23;19997;-85
2022/06/01 04:36:23;;;;;;;;;;;;;;;18.06;55.93;100033.25;6245519;23;19953;-85
2022/06/01 04:38:49;;;;;;;;;;;;;;;18.14;54.45;100038.72;6195652;23;19919;-85
2022/06/01 04:41:15;;;;;;;;;;;;;;;18.15;53.03;100045.00;6222090;23;19919;-89
2022/06/01 04:43:40;;;;;;;;;;;;;;;18.12;52.83;100040.72;6246553;23;20285;-87
2022/06/01 04:46:06;;;;;;;;;;;;;;;18.18;51.56;100034.72;6246999;22;19927;-86
2022/06/01 04:48:31;;;;;;;;;;;;;;;18.20;51.32;100031.84;6221183;23;19998;-81
2022/06/01 04:50:58;;;;;;;;;;;;;;;18.26;49.71;100039.34;6246498;23;19919;-88
2022/06/01 04:53:24;;;;;;;;;;;;;;;18.25;49.34;100036.81;6199556;23;19920;-94
2022/06/01 04:55:50;;;;;;;;;;;;;;;18.37;50.79;100049.09;6248109;23;20006;-85
2022/06/01 04:58:15;;;;;;;;;;;;;;;18.41;50.36;100035.09;6246904;22;20031;-90
2022/06/01 05:00:42;;;;;;;;;;;;;;;18.55;50.48;100033.69;6194594;23;20002;-82
2022/06/01 05:03:08;;;;;;;;;;;;;;;18.56;51.23;100042.66;6219615;23;19920;-83
2022/06/01 05:05:39;;;;;;;;;;;;;;;18.72;50.92;100042.78;6244981;23;19924;-85
2022/06/01 05:08:06;;;;;;;;;;;;;;;18.73;50.45;100040.94;6244761;23;19919;-86
2022/06/01 05:10:32;;;;;;;;;;;;;;;18.87;49.30;100038.50;6219460;23;20396;-81
2022/06/01 05:12:57;;;;;;;;;;;;;;;18.95;49.37;100045.84;6194667;23;19919;-82
2022/06/01 05:15:23;;;;;;;;;;;;;;;18.94;47.98;100036.00;6219673;23;19950;-82
2022/06/01 05:17:49;;;;;;;;;;;;;;;18.83;47.65;100039.84;6194947;23;20002;-84
2022/06/01 05:20:14;;;;;;;;;;;;;;;18.92;46.68;100038.03;6194894;23;19954;-82
2022/06/01 05:22:41;;;;;;;;;;;;;;;18.97;46.69;100035.69;6196706;23;19986;-86
2022/06/01 05:25:07;;;;;;;;;;;;;;;19.02;45.50;100033.34;6220642;23;19920;-86
2022/06/01 05:27:33;;;;;;;;;;;;;;;19.20;45.75;100046.00;6220938;23;19919;-89
2022/06/01 05:29:59;;;;;;;;;;;;;;;19.24;45.41;100039.22;6220255;23;19919;-87
2022/06/01 05:32:25;;;;;;;;;;;;;;;19.39;45.29;100043.03;6246675;22;19982;-80
2022/06/01 05:34:50;;;;;;;;;;;;;;;19.59;45.04;100035.47;6244920;23;19981;-81
2022/06/01 05:37:16;;;;;;;;;;;;;;;19.57;43.53;100038.38;6219539;23;19931;-80
2022/06/01 05:39:42;;;;;;;;;;;;;;;19.49;43.38;100040.22;6244190;23;19919;-83
2022/06/01 05:42:08;;;;;;;;;;;;;;;19.53;43.26;100036.16;6221098;23;19919;-86
2022/06/01 05:44:33;;;;;;;;;;;;;;;19.68;45.88;100039.13;6220620;23;19942;-82
2022/06/01 05:47:01;;;;;;;;;;;;;;;19.90;42.61;100038.50;6221680;23;19920;-89
2022/06/01 05:49:27;;;;;;;;;;;;;;;19.94;43.11;100039.03;6245408;23;19919;-82
2022/06/01 05:51:53;;;;;;;;;;;;;;;19.86;41.96;100032.56;6221896;23;19926;-85
2022/06/01 05:54:19;;;;;;;;;;;;;;;19.96;43.04;100029.69;6222538;23;20363;-81
2022/06/01 05:56:45;;;;;;;;;;;;;;;20.05;42.06;100034.13;6245175;23;19919;-85
2022/06/01 05:59:11;;;;;;;;;;;;;;;20.10;41.83;100034.47;6248202;23;20264;-88
2022/06/01 06:01:38;;;;;;;;;;;;;;;20.30;41.10;100029.56;6196509;23;19919;-79
2022/06/01 06:04:04;;;;;;;;;;;;;;;20.40;40.64;100034.84;6251666;23;19967;-77
2022/06/01 06:06:30;;;;;;;;;;;;;;;20.42;40.80;100040.09;6194459;23;19920;-82
2022/06/01 06:09:00;;;;;;;;;;;;;;;20.50;40.77;100038.28;6244846;23;20066;-80
2022/06/01 06:11:27;;;;;;;;;;;;;;;20.66;39.61;100033.84;6245514;23;19970;-79
2022/06/01 06:13:54;;;;;;;;;;;;;;;20.50;38.81;100030.13;6196605;23;19951;-88
2022/06/01 06:16:20;;;;;;;;;;;;;;;20.74;38.94;100025.69;6197369;23;19943;-83
2022/06/01 06:18:46;;;;;;;;;;;;;;;20.73;37.85;100032.16;6221909;22;20358;-83
2022/06/01 06:21:12;;;;;;;;;;;;;;;20.80;37.57;100030.44;6196136;23;19927;-80
2022/06/01 06:23:38;;;;;;;;;;;;;;;20.80;37.86;100036.72;6221384;23;19931;-82
2022/06/01 06:26:04;;;;;;;;;;;;;;;20.80;35.72;100030.44;6201287;23;19930;-82
2022/06/01 06:28:30;;;;;;;;;;;;;;;20.57;35.28;100027.56;6220695;23;20259;-82
2022/06/01 06:30:56;;;;;;;;;;;;;;;20.42;36.57;100037.38;6221062;23;19930;-79
2022/06/01 06:33:22;;;;;;;;;;;;;;;20.86;36.33;100043.31;6247621;22;20006;-79
2022/06/01 06:35:58;;;;;;;;;;;;;;;21.03;35.19;100036.00;6246310;23;19942;-87
2022/06/01 06:38:26;;;;;;;;;;;;;;;21.14;35.66;100037.47;6221228;23;19935;-80
2022/06/01 06:40:54;;;;;;;;;;;;;;;21.19;36.49;100032.38;6220884;23;19925;-80
2022/06/01 06:43:21;;;;;;;;;;;;;;;21.45;33.66;100024.84;6220208;23;19920;-79
2022/06/01 06:46:01;;;;;;;;;;;;;;;21.46;32.86;100029.25;6247634;23;20310;-79
2022/06/01 06:48:27;;;;;;;;;;;;;;;21.32;33.18;100019.91;6197609;23;19928;-79
2022/06/01 06:50:53;;;;;;;;;;;;;;;21.68;32.90;100024.06;6219979;23;19923;-78
2022/06/01 06:53:19;;;;;;;;;;;;;;;21.79;33.26;100032.66;6246550;23;19919;-78
2022/06/01 06:55:45;;;;;;;;;;;;;;;21.76;32.68;100024.00;6245028;23;20298;-84
2022/06/01 06:58:11;;;;;;;;;;;;;;;21.81;32.16;100024.31;6196059;23;19920;-80
2022/06/01 07:00:37;;;;;;;;;;;;;;;21.86;31.36;100031.97;6247658;22;19943;-81
2022/06/01 07:03:04;;;;;;;;;;;;;;;21.96;31.08;100036.13;6194995;23;20310;-81
2022/06/01 07:08:15;;;;;;;;;;;;;;;22.19;31.75;100033.50;6220136;23;19919;-80
2022/06/01 07:10:40;;;;;;;;;;;;;;;22.25;32.32;100026.44;6244480;23;20336;-79
2022/06/01 07:13:06;;;;;;;;;;;;;;;22.45;32.55;100024.06;6195162;23;20363;-79
2022/06/01 07:15:32;;;;;;;;;;;;;;;22.47;31.69;100030.19;6246439;23;19927;-85
2022/06/01 07:17:57;;;;;;;;;;;;;;;22.47;31.82;100033.78;6195008;23;19919;-80
2022/06/01 07:20:23;;;;;;;;;;;;;;;22.71;31.09;100029.13;6220236;23;19927;-82
2022/06/01 07:22:49;;;;;;;;;;;;;;;22.81;31.69;100023.44;6194615;23;19975;-81
2022/06/01 07:25:15;;;;;;;;;;;;;;;22.86;31.61;100027.28;6246079;22;20303;-85
2022/06/01 07:27:41;;;;;;;;;;;;;;;23.17;31.38;100010.81;6195978;23;19919;-80
2022/06/01 07:30:07;;;;;;;;;;;;;;;23.36;29.41;100016.72;6247100;23;19935;-81
2022/06/01 07:32:33;;;;;;;;;;;;;;;22.47;30.25;100027.47;6220055;23;19920;-82
2022/06/01 07:34:59;;;;;;;;;;;;;;;22.39;30.36;100022.94;6219854;23;20366;-82
2022/06/01 07:43:08;;;;;;;;;;;;;;;23.27;29.89;100007.78;6219809;23;19926;-79
2022/06/01 07:45:44;;;;;;;;;;;;;;;23.16;28.68;100019.16;6245218;23;19920;-89
2022/06/01 07:48:11;;;;;;;;;;;;;;;23.23;28.61;100009.19;6220220;23;19943;-85
2022/06/01 07:50:36;;;;;;;;;;;;;;;23.59;27.88;100013.88;6246775;22;19994;-83
2022/06/01 07:53:03;;;;;;;;;;;;;;;23.88;28.48;100007.50;6220433;23;20339;-82
2022/06/01 07:55:29;;;;;;;;;;;;;;;24.08;28.51;99997.66;6219419;23;19920;-81
2022/06/01 07:57:55;;;;;;;;;;;;;;;24.26;27.35;99999.94;6219624;23;19942;-78
2022/06/01 08:00:21;;;;;;;;;;;;;;;24.31;27.24;100008.41;6244857;23;19934;-77
2022/06/01 08:02:47;;;;;;;;;;;;;;;24.49;26.79;99998.94;6246659;22;19919;-80
2022/06/01 08:05:14;;;;;;;;;;;;;;;24.06;27.00;99996.16;6246664;22;19926;-77
2022/06/01 08:07:40;;;;;;;;;;;;;;;23.70;26.36;99997.03;6244731;23;19919;-78
2022/06/01 08:10:07;;;;;;;;;;;;;;;23.40;26.68;99999.78;6194834;23;19930;-77
2022/06/01 08:15:18;;;;;;;;;;;;;;;23.50;28.64;99994.84;6219723;23;19920;-77
2022/06/01 08:17:46;;;;;;;;;;;;;;;23.85;28.78;100003.31;6244956;23;20335;-78
2022/06/01 08:20:12;;;;;;;;;;;;;;;24.05;27.82;99991.75;6220014;23;20019;-77
2022/06/01 08:22:38;;;;;;;;;;;;;;;23.66;27.59;99999.31;6244754;23;19954;-77
2022/06/01 08:25:05;;;;;;;;;;;;;;;23.89;28.83;100007.34;6244802;23;19919;-78
2022/06/01 08:27:30;;;;;;;;;;;;;;;23.79;29.48;100001.34;6219708;23;19926;-78
2022/06/01 08:29:56;;;;;;;;;;;;;;;24.32;29.44;99993.69;6244809;23;20002;-78
2022/06/01 08:32:23;;;;;;;;;;;;;;;24.32;28.63;100001.88;6244952;23;20335;-78
2022/06/01 08:34:48;;;;;;;;;;;;;;;23.74;29.08;100009.25;6219400;23;19919;-77
2022/06/01 08:37:14;;;;;;;;;;;;;;;23.57;29.84;99996.84;6219508;23;19919;-79
2022/06/01 08:39:40;;;;;;;;;;;;;;;23.60;28.62;99994.56;6219789;23;19969;-78
2022/06/01 08:42:11;;;;;;;;;;;;;;;23.28;28.96;100001.28;6244301;23;19931;-78
2022/06/01 08:44:38;;;;;;;;;;;;;;;23.55;29.59;99996.19;6195294;23;20232;-77
2022/06/01 08:47:06;;;;;;;;;;;;;;;24.12;28.49;99992.66;6244319;23;20005;-78
2022/06/01 08:49:33;;;;;;;;;;;;;;;24.34;27.80;99996.25;6218996;23;20370;-79
2022/06/01 08:51:59;;;;;;;;;;;;;;;24.58;28.02;99995.84;6194469;23;19938;-79
2022/06/01 08:54:25;;;;;;;;;;;;;;;24.66;27.50;99990.22;6244725;23;19923;-78
2022/06/01 08:56:53;;;;;;;;;;;;;;;24.44;28.40;99992.13;6244548;23;19965;-77
2022/06/01 08:59:37;;;;;;;;;;;;;;;24.89;27.71;99992.69;6219072;23;19919;-78
2022/06/01 09:02:22;;;;;;;;;;;;;;;25.03;26.08;99990.06;6219439;23;19939;-78
2022/06/01 09:04:48;;;;;;;;;;;;;;;24.33;27.10;99983.59;6244447;23;19919;-78
2022/06/01 09:07:13;;;;;;;;;;;;;;;24.82;28.04;99997.28;6219170;23;20004;-78
2022/06/01 09:09:51;;;;;;;;;;;;;;;25.52;26.82;99984.44;6219357;23;19919;-78
2022/06/01 09:12:17;;;;;;;;;;;;;;;26.23;26.75;99992.25;6219472;23;20330;-76
2022/06/01 09:14:44;;;;;;;;;;;;;;;26.66;25.08;99985.56;6220328;23;19919;-79
2022/06/01 09:17:10;;;;;;;;;;;;;;;26.22;25.41;99987.00;6220004;23;19927;-77
2022/06/01 09:22:37;;;;;;;;;;;;;;;26.74;24.96;99983.47;6219278;23;20251;-77
2022/06/01 09:25:11;;;;;;;;;;;;;;;26.44;24.71;99973.91;6246064;22;19920;-78
2022/06/01 09:27:44;;;;;;;;;;;;;;;26.05;25.16;99976.41;6193899;23;20298;-78
2022/06/01 09:30:29;;;;;;;;;;;;;;;25.74;25.99;99981.59;6246022;22;19919;-78
2022/06/01 09:33:14;;;;;;;;;;;;;;;24.93;26.84;99990.41;6244754;23;20328;-78
2022/06/01 09:35:45;;;;;;;;;;;;;;;25.40;27.43;99988.81;6244422;23;20006;-77
2022/06/01 09:38:17;;;;;;;;;;;;;;;26.06;26.96;99990.97;6193950;23;19926;-78
2022/06/01 09:40:43;;;;;;;;;;;;;;;25.88;25.90;99989.66;6194438;23;19969;-79
2022/06/01 09:43:20;;;;;;;;;;;;;;;25.78;25.69;99983.72;6193857;23;19923;-78
2022/06/01 09:45:53;;;;;;;;;;;;;;;26.00;24.80;99976.22;6244347;23;19930;-78
2022/06/01 09:48:27;;;;;;;;;;;;;;;26.21;24.87;99972.44;6244542;23;19926;-78
2022/06/01 09:51:08;;;;;;;;;;;;;;;26.90;24.73;99975.84;6193932;23;19927;-77
2022/06/01 09:53:48;;;;;;;;;;;;;;;27.21;24.15;99973.25;6193844;23;19920;-77
2022/06/01 09:56:31;;;;;;;;;;;;;;;27.86;24.19;99969.59;6193788;23;19919;-78
2022/06/01 10:07:22;;;;;;;;;;;;;;;28.04;23.68;99975.22;6219153;23;20340;-79
2022/06/01 10:09:59;;;;;;;;;;;;;;;27.83;22.49;99988.25;6219375;23;19970;-79
2022/06/01 10:12:43;;;;;;;;;;;;;;;28.62;22.36;99979.66;6244693;23;19923;-79
2022/06/01 10:15:17;;;;;;;;;;;;;;;29.19;21.31;99969.41;6246184;22;19927;-78
2022/06/01 10:17:47;;;;;;;;;;;;;;;28.78;21.17;99979.09;6220033;23;20085;-79
2022/06/01 10:20:13;;;;;;;;;;;;;;;29.15;21.58;99977.28;6194582;23;19919;-78
2022/06/01 10:23:01;;;;;;;;;;;;;;;29.50;21.42;99988.50;6194167;23;19925;-80
2022/06/01 10:25:53;;;;;;;;;;;;;;;29.74;21.34;99972.94;6243904;23;19920;-79
2022/06/01 10:28:22;;;;;;;;;;;;;;;29.56;21.26;99983.97;6241089;23;20298;-81
2022/06/01 10:30:50;;;;;;;;;;;;;;;29.60;21.25;99982.47;6193318;23;19956;-79
2022/06/01 10:33:42;;;;;;;;;;;;;;;29.90;20.70;99976.13;6244141;23;19927;-79
2022/06/01 10:36:12;;;;;;;;;;;;;;;28.59;22.03;99980.97;6190566;23;19920;-80
2022/06/01 10:38:44;;;;;;;;;;;;;;;28.51;22.66;100000.47;6244585;23;19927;-79
2022/06/01 10:41:29;;;;;;;;;;;;;;;29.44;22.43;99999.59;6244424;23;19972;-78
2022/06/01 10:43:59;;;;;;;;;;;;;;;29.77;21.69;99982.66;6242744;23;20260;-79
2022/06/01 10:46:46;;;;;;;;;;;;;;;30.22;21.47;99985.84;6243959;23;19974;-79
2022/06/01 10:49:21;;;;;;;;;;;;;;;30.91;20.29;99982.59;6243996;23;20345;-78
2022/06/01 10:51:54;;;;;;;;;;;;;;;30.83;20.27;99985.72;6245717;22;19923;-79
2022/06/01 10:54:23;;;;;;;;;;;;;;;30.62;19.77;99989.91;6244124;23;19920;-80
2022/06/01 10:56:49;;;;;;;;;;;;;;;30.58;19.89;99988.66;6218777;23;19985;-79
2022/06/01 10:59:16;;;;;;;;;;;;;;;30.68;20.20;99987.00;6219657;23;20324;-80
2022/06/01 11:02:01;;;;;;;;;;;;;;;30.87;20.36;99982.25;6247180;22;19972;-80
2022/06/01 11:04:36;;;;;;;;;;;;;;;31.34;19.10;99984.16;6220725;23;20359;-80
2022/06/01 11:07:15;;;;;;;;;;;;;;;30.84;19.21;99982.75;6220437;23;20287;-80
2022/06/01 11:09:50;;;;;;;;;;;;;;;31.50;19.54;99986.16;6195286;23;20255;-79
2022/06/01 11:12:16;;;;;;;;;;;;;;;32.15;18.89;99999.63;6245820;23;19927;-80
2022/06/01 11:15:00;;;;;;;;;;;;;;;32.02;18.72;99990.81;6195430;23;20386;-80
2022/06/01 11:17:35;;;;;;;;;;;;;;;31.04;18.94;99989.81;6195703;23;20417;-80
2022/06/01 11:20:11;;;;;;;;;;;;;;;31.21;19.06;99983.28;6195740;23;20328;-80
2022/06/01 11:22:55;;;;;;;;;;;;;;;32.66;19.16;99979.50;6245820;23;19924;-80
2022/06/01 11:25:32;;;;;;;;;;;;;;;32.26;18.49;99983.22;6220564;23;19919;-80
2022/06/01 11:28:16;;;;;;;;;;;;;;;29.71;20.80;99992.72;6220345;23;19926;-78
2022/06/01 11:30:51;;;;;;;;;;;;;;;30.40;20.72;99992.38;6221218;23;20324;-80
2022/06/01 11:33:27;;;;;;;;;;;;;;;30.95;20.51;99994.84;6194976;23;19987;-79
2022/06/01 11:35:58;;;;;;;;;;;;;;;31.48;19.38;100004.06;6220511;23;19919;-79
2022/06/01 11:38:40;;;;;;;;;;;;;;;31.61;19.04;99999.09;6245742;23;20014;-80
2022/06/01 11:41:23;;;;;;;;;;;;;;;32.59;18.62;99996.25;6196510;23;20006;-79
2022/06/01 11:43:58;;;;;;;;;;;;;;;33.27;17.60;99999.81;6220750;23;19923;-81
2022/06/01 11:46:33;;;;;;;;;;;;;;;33.12;16.98;100001.28;6196027;23;19935;-82
2022/06/01 11:49:00;;;;;;;;;;;;;;;33.18;17.50;99998.59;6221389;23;19920;-81
2022/06/01 11:51:44;;;;;;;;;;;;;;;33.36;17.20;99995.50;6247750;22;19946;-87
2022/06/01 11:54:10;;;;;;;;;;;;;;;33.16;17.81;99993.28;6207310;23;19942;-82
2022/06/01 11:56:42;;;;;;;;;;;;;;;33.50;17.64;100001.53;6227243;23;19920;-84
2022/06/01 11:59:20;;;;;;;;;;;;;;;33.49;17.40;100002.63;6248819;22;19920;-79
2022/06/01 12:01:48;;;;;;;;;;;;;;;34.52;17.26;100003.50;6220373;23;20009;-81
2022/06/01 12:04:22;;;;;;;;;;;;;;;35.15;16.12;99997.34;6245178;23;19920;-86
2022/06/01 12:06:57;;;;;;;;;;;;;;;34.10;17.05;100002.53;6247135;22;19920;-78
2022/06/01 12:09:38;;;;;;;;;;;;;;;31.89;18.50;100005.75;6244486;23;19942;-76
2022/06/01 12:12:05;;;;;;;;;;;;;;;30.48;19.91;100000.31;6244755;23;19919;-79
2022/06/01 12:14:30;;;;;;;;;;;;;;;29.50;20.67;100001.44;6245310;23;20008;-79
2022/06/01 12:17:15;;;;;;;;;;;;;;;28.90;21.26;100006.72;6246122;23;20339;-78
2022/06/01 12:19:45;;;;;;;;;;;;;;;28.90;22.02;100009.47;6218461;23;20255;-77
2022/06/01 12:28:31;;;;;;;;;;;;;;;30.73;20.60;100006.47;6218069;23;19947;-79
2022/06/01 12:28:31;;;;;;;;;;;;;;;33.50;18.28;99993.22;6218273;23;19946;-77
2022/06/01 12:31:09;;;;;;;;;;;;;;;34.65;16.64;99999.47;6243176;23;19923;-77
2022/06/01 12:33:54;;;;;;;;;;;;;;;34.32;17.10;100006.09;6218069;23;20438;-81
2022/06/01 12:36:20;;;;;;;;;;;;;;;33.97;16.79;100003.75;6218460;23;20277;-79
2022/06/01 12:38:47;;;;;;;;;;;;;;;34.52;16.25;100000.72;6218209;23;19931;-79
2022/06/01 12:41:17;;;;;;;;;;;;;;;35.50;16.14;100005.03;6243654;23;19968;-80
2022/06/01 12:43:52;;;;;;;;;;;;;;;36.16;15.08;99991.38;6192932;23;19919;-78
2022/06/01 12:46:19;;;;;;;;;;;;;;;36.19;15.02;100001.13;6243361;23;20340;-78
2022/06/01 12:48:45;;;;;;;;;;;;;;;36.50;15.20;99992.81;6244800;22;19919;-79
2022/06/01 12:51:10;;;;;;;;;;;;;;;36.33;15.07;99991.09;6243226;23;19930;-77
2022/06/01 12:53:47;;;;;;;;;;;;;;;36.74;15.45;99988.34;6242396;23;19973;-78
2022/06/01 12:56:18;;;;;;;;;;;;;;;37.30;15.05;99999.41;6242976;23;19947;-79
2022/06/01 12:58:45;;;;;;;;;;;;;;;37.53;15.06;100000.72;6242375;23;20339;-79
2022/06/01 13:01:11;;;;;;;;;;;;;;;37.31;14.44;100003.88;6218032;23;19976;-77
2022/06/01 13:03:50;;;;;;;;;;;;;;;34.33;16.07;100013.31;6244495;22;19974;-78
2022/06/01 13:06:18;;;;;;;;;;;;;;;34.76;16.59;100006.78;6218190;23;20578;-78
2022/06/01 13:08:44;;;;;;;;;;;;;;;35.93;15.24;100011.31;6218071;23;19970;-78
2022/06/01 13:11:16;;;;;;;;;;;;;;;35.30;15.82;100004.91;6192696;23;19926;-78
2022/06/01 13:13:43;;;;;;;;;;;;;;;35.18;15.68;99996.81;6192872;23;19919;-79
2022/06/01 13:16:09;;;;;;;;;;;;;;;34.99;15.81;100005.56;6218086;23;19923;-78
2022/06/01 13:18:38;;;;;;;;;;;;;;;34.45;16.13;100005.63;6243395;23;19969;-78
2022/06/01 13:21:14;;;;;;;;;;;;;;;34.33;16.29;100003.03;6218526;23;19919;-79
2022/06/01 13:23:43;;;;;;;;;;;;;;;35.15;16.09;100012.06;6244544;23;19920;-77
2022/06/01 13:26:10;;;;;;;;;;;;;;;36.24;15.57;100006.69;6193872;23;20307;-78
2022/06/01 13:28:35;;;;;;;;;;;;;;;36.86;15.04;100011.19;6193914;23;19965;-78